createdAt,value
2017-10-30T00:00:24.552Z,9.8
2017-10-30T00:01:26.912Z,9.8
2017-10-30T00:02:29.288Z,9.8
2017-10-30T00:03:31.657Z,9.8
2017-10-30T00:04:34.032Z,9.8
2017-10-30T00:05:36.397Z,9.8
2017-10-30T00:06:38.769Z,9.8
2017-10-30T00:07:41.496Z,9.8
2017-10-30T00:08:44.217Z,9.8
2017-10-30T00:09:46.585Z,9.8
2017-10-30T00:10:48.962Z,9.8
2017-10-30T00:11:51.321Z,9.8
2017-10-30T00:12:53.694Z,9.8
2017-10-30T00:13:56.061Z,9.8
2017-10-30T00:14:58.430Z,9.8
2017-10-30T00:16:00.793Z,9.8
2017-10-30T00:17:03.170Z,9.8
2017-10-30T00:18:05.530Z,9.8
2017-10-30T00:19:07.901Z,9.8
2017-10-30T00:20:10.262Z,9.8
2017-10-30T00:21:12.637Z,9.8
2017-10-30T00:22:14.998Z,9.7
2017-10-30T00:23:17.369Z,9.7
2017-10-30T00:24:19.731Z,9.7
2017-10-30T00:25:22.108Z,9.7
2017-10-30T00:26:24.465Z,9.7
2017-10-30T00:27:26.838Z,9.7
2017-10-30T00:28:29.202Z,9.7
2017-10-30T00:29:31.571Z,9.7
2017-10-30T00:30:33.933Z,9.7
2017-10-30T00:31:36.306Z,9.7
2017-10-30T00:32:38.659Z,9.7
2017-10-30T00:33:41.038Z,9.7
2017-10-30T00:34:43.412Z,9.7
2017-10-30T00:35:45.765Z,9.7
2017-10-30T00:36:48.131Z,9.7
2017-10-30T00:37:50.503Z,9.7
2017-10-30T00:38:52.879Z,9.7
2017-10-30T00:39:55.250Z,9.7
2017-10-30T00:40:57.623Z,9.7
2017-10-30T00:42:00.337Z,9.7
2017-10-30T00:43:02.715Z,9.7
2017-10-30T00:44:05.084Z,9.7
2017-10-30T00:45:07.439Z,9.7
2017-10-30T00:46:09.808Z,9.7
2017-10-30T00:47:12.520Z,9.7
2017-10-30T00:48:14.890Z,9.7
2017-10-30T00:49:17.258Z,9.7
2017-10-30T00:50:19.615Z,9.7
2017-10-30T00:51:21.983Z,9.7
2017-10-30T00:52:24.356Z,9.7
2017-10-30T00:53:26.725Z,9.7
2017-10-30T00:54:29.089Z,9.7
2017-10-30T00:55:31.461Z,9.6
2017-10-30T00:56:34.178Z,9.7
2017-10-30T00:57:36.565Z,9.6
2017-10-30T00:58:38.933Z,9.7
2017-10-30T00:59:41.662Z,9.7
2017-10-30T01:00:44.027Z,9.6
2017-10-30T01:01:46.398Z,9.7
2017-10-30T01:02:48.763Z,9.7
2017-10-30T01:03:51.132Z,9.7
2017-10-30T01:04:53.502Z,9.6
2017-10-30T01:05:55.875Z,9.7
2017-10-30T01:06:58.244Z,9.7
2017-10-30T01:08:00.618Z,9.7
2017-10-30T01:09:02.989Z,9.7
2017-10-30T01:10:05.349Z,9.7
2017-10-30T01:11:07.722Z,9.7
2017-10-30T01:12:10.084Z,9.7
2017-10-30T01:13:13.178Z,9.7
2017-10-30T01:14:15.543Z,9.7
2017-10-30T01:15:17.908Z,9.7
2017-10-30T01:16:20.283Z,9.7
2017-10-30T01:17:22.650Z,9.7
2017-10-30T01:18:25.008Z,9.7
2017-10-30T01:19:27.376Z,9.7
2017-10-30T01:20:29.757Z,9.7
2017-10-30T01:21:32.126Z,9.7
2017-10-30T01:22:34.500Z,9.7
2017-10-30T01:23:36.858Z,9.7
2017-10-30T01:24:39.227Z,9.7
2017-10-30T01:25:41.599Z,9.7
2017-10-30T01:26:43.966Z,9.7
2017-10-30T01:27:46.335Z,9.7
2017-10-30T01:28:48.697Z,9.7
2017-10-30T01:29:51.058Z,9.7
2017-10-30T01:30:53.461Z,9.7
2017-10-30T01:31:55.804Z,9.7
2017-10-30T01:32:58.158Z,9.7
2017-10-30T01:34:00.532Z,9.7
2017-10-30T01:35:02.898Z,9.7
2017-10-30T01:36:05.268Z,9.7
2017-10-30T01:37:07.632Z,9.6
2017-10-30T01:38:10.351Z,9.7
2017-10-30T01:39:12.719Z,9.7
2017-10-30T01:40:15.082Z,9.7
2017-10-30T01:41:17.448Z,9.7
2017-10-30T01:42:19.812Z,9.7
2017-10-30T01:43:22.525Z,9.7
2017-10-30T01:44:24.904Z,9.7
2017-10-30T01:45:27.279Z,9.7
2017-10-30T01:46:29.645Z,9.7
2017-10-30T01:47:32.020Z,9.7
2017-10-30T01:48:34.385Z,9.7
2017-10-30T01:49:36.748Z,9.7
2017-10-30T01:50:39.114Z,9.7
2017-10-30T01:51:41.480Z,9.7
2017-10-30T01:52:43.849Z,9.7
2017-10-30T01:53:46.586Z,9.7
2017-10-30T01:54:48.944Z,9.7
2017-10-30T01:55:51.319Z,9.7
2017-10-30T01:56:53.684Z,9.7
2017-10-30T01:57:56.047Z,9.6
2017-10-30T01:58:58.418Z,9.6
2017-10-30T02:00:00.802Z,9.6
2017-10-30T02:01:03.168Z,9.6
2017-10-30T02:02:05.542Z,9.6
2017-10-30T02:03:07.905Z,9.6
2017-10-30T02:04:10.268Z,9.6
2017-10-30T02:05:12.634Z,9.6
2017-10-30T02:06:15.016Z,9.6
2017-10-30T02:07:17.733Z,9.6
2017-10-30T02:08:20.089Z,9.6
2017-10-30T02:09:22.456Z,9.5
2017-10-30T02:10:24.828Z,9.5
2017-10-30T02:11:27.198Z,9.5
2017-10-30T02:12:29.565Z,9.5
2017-10-30T02:13:31.920Z,9.5
2017-10-30T02:14:34.287Z,9.5
2017-10-30T02:15:36.675Z,9.5
2017-10-30T02:16:39.034Z,9.5
2017-10-30T02:17:41.761Z,9.5
2017-10-30T02:18:44.121Z,9.5
2017-10-30T02:19:46.487Z,9.5
2017-10-30T02:20:48.873Z,9.5
2017-10-30T02:21:51.241Z,9.5
2017-10-30T02:22:53.956Z,9.5
2017-10-30T02:23:56.328Z,9.5
2017-10-30T02:24:58.695Z,9.5
2017-10-30T02:26:01.063Z,9.5
2017-10-30T02:27:03.432Z,9.5
2017-10-30T02:28:05.789Z,9.5
2017-10-30T02:29:08.507Z,9.5
2017-10-30T02:30:10.881Z,9.5
2017-10-30T02:31:13.620Z,9.5
2017-10-30T02:32:15.993Z,9.5
2017-10-30T02:33:18.355Z,9.5
2017-10-30T02:34:21.102Z,9.5
2017-10-30T02:35:23.475Z,9.5
2017-10-30T02:36:26.204Z,9.5
2017-10-30T02:37:28.562Z,9.5
2017-10-30T02:38:30.936Z,9.5
2017-10-30T02:39:33.293Z,9.4
2017-10-30T02:40:36.046Z,9.4
2017-10-30T02:41:38.403Z,9.4
2017-10-30T02:42:40.773Z,9.4
2017-10-30T02:43:43.142Z,9.4
2017-10-30T02:44:45.509Z,9.4
2017-10-30T02:45:47.881Z,9.4
2017-10-30T02:46:50.261Z,9.4
2017-10-30T02:47:52.616Z,9.4
2017-10-30T02:48:54.988Z,9.4
2017-10-30T02:49:57.357Z,9.4
2017-10-30T02:50:59.732Z,9.4
2017-10-30T02:52:02.093Z,9.4
2017-10-30T02:53:04.465Z,9.4
2017-10-30T02:54:06.820Z,9.4
2017-10-30T02:55:09.580Z,9.4
2017-10-30T02:56:12.293Z,9.4
2017-10-30T02:57:14.658Z,9.4
2017-10-30T02:58:17.024Z,9.4
2017-10-30T02:59:19.390Z,9.4
2017-10-30T03:00:21.756Z,9.4
2017-10-30T03:01:24.130Z,9.4
2017-10-30T03:02:26.498Z,9.4
2017-10-30T03:03:28.852Z,9.4
2017-10-30T03:04:31.220Z,9.3
2017-10-30T03:05:33.596Z,9.4
2017-10-30T03:06:35.959Z,9.4
2017-10-30T03:07:38.334Z,9.4
2017-10-30T03:08:40.706Z,9.4
2017-10-30T03:09:43.067Z,9.3
2017-10-30T03:10:45.804Z,9.3
2017-10-30T03:11:48.174Z,9.3
2017-10-30T03:12:50.531Z,9.4
2017-10-30T03:13:52.898Z,9.4
2017-10-30T03:14:55.265Z,9.4
2017-10-30T03:15:57.634Z,9.4
2017-10-30T03:17:00.715Z,9.4
2017-10-30T03:18:03.086Z,9.4
2017-10-30T03:19:05.805Z,9.4
2017-10-30T03:20:08.186Z,9.4
2017-10-30T03:21:10.549Z,9.4
2017-10-30T03:22:12.899Z,9.4
2017-10-30T03:23:15.620Z,9.4
2017-10-30T03:24:17.984Z,9.4
2017-10-30T03:25:20.355Z,9.4
2017-10-30T03:26:22.723Z,9.4
2017-10-30T03:27:25.089Z,9.4
2017-10-30T03:28:27.455Z,9.4
2017-10-30T03:29:29.835Z,9.4
2017-10-30T03:30:32.199Z,9.4
2017-10-30T03:31:34.563Z,9.4
2017-10-30T03:32:36.931Z,9.4
2017-10-30T03:33:39.305Z,9.4
2017-10-30T03:34:42.010Z,9.4
2017-10-30T03:35:44.394Z,9.4
2017-10-30T03:36:47.117Z,9.4
2017-10-30T03:37:49.491Z,9.4
2017-10-30T03:38:51.861Z,9.4
2017-10-30T03:39:54.229Z,9.4
2017-10-30T03:40:56.604Z,9.4
2017-10-30T03:41:58.972Z,9.4
2017-10-30T03:43:01.338Z,9.4
2017-10-30T03:44:03.700Z,9.4
2017-10-30T03:45:06.061Z,9.4
2017-10-30T03:46:08.435Z,9.4
2017-10-30T03:47:10.798Z,9.3
2017-10-30T03:48:13.175Z,9.3
2017-10-30T03:49:15.540Z,9.3
2017-10-30T03:50:17.909Z,9.3
2017-10-30T03:51:20.277Z,9.3
2017-10-30T03:52:22.646Z,9.3
2017-10-30T03:53:25.000Z,9.3
2017-10-30T03:54:27.400Z,9.3
2017-10-30T03:55:29.763Z,9.2
2017-10-30T03:56:32.133Z,9.3
2017-10-30T03:57:34.507Z,9.2
2017-10-30T03:58:36.870Z,9.2
2017-10-30T03:59:39.237Z,9.2
2017-10-30T04:00:41.609Z,9.2
2017-10-30T04:01:43.978Z,9.2
2017-10-30T04:02:46.333Z,9.2
2017-10-30T04:03:48.709Z,9.2
2017-10-30T04:04:51.073Z,9.2
2017-10-30T04:05:53.445Z,9.2
2017-10-30T04:06:55.812Z,9.2
2017-10-30T04:07:58.187Z,9.2
2017-10-30T04:09:00.544Z,9.2
2017-10-30T04:10:02.921Z,9.1
2017-10-30T04:11:05.283Z,9.1
2017-10-30T04:12:07.648Z,9.1
2017-10-30T04:13:10.015Z,9.1
2017-10-30T04:14:12.375Z,9.1
2017-10-30T04:15:14.747Z,9.1
2017-10-30T04:16:17.117Z,9.1
2017-10-30T04:17:19.476Z,9.1
2017-10-30T04:18:21.837Z,9.1
2017-10-30T04:19:24.203Z,9.1
2017-10-30T04:20:26.928Z,9.1
2017-10-30T04:21:29.287Z,9.1
2017-10-30T04:22:31.653Z,9.1
2017-10-30T04:23:34.022Z,9.1
2017-10-30T04:24:37.090Z,9.1
2017-10-30T04:25:39.463Z,9
2017-10-30T04:26:41.831Z,9.1
2017-10-30T04:27:44.192Z,9
2017-10-30T04:28:46.575Z,9
2017-10-30T04:29:48.932Z,9
2017-10-30T04:30:51.298Z,9
2017-10-30T04:31:53.669Z,9
2017-10-30T04:32:56.420Z,9
2017-10-30T04:33:59.159Z,9
2017-10-30T04:35:02.238Z,9
2017-10-30T04:36:04.615Z,9
2017-10-30T04:37:06.992Z,9
2017-10-30T04:38:09.731Z,8.9
2017-10-30T04:39:12.097Z,8.9
2017-10-30T04:40:14.465Z,8.9
2017-10-30T04:41:16.833Z,8.9
2017-10-30T04:42:19.200Z,8.9
2017-10-30T04:43:21.560Z,8.9
2017-10-30T04:44:24.283Z,8.9
2017-10-30T04:45:26.657Z,8.9
2017-10-30T04:46:29.024Z,8.9
2017-10-30T04:47:31.389Z,8.9
2017-10-30T04:48:33.761Z,8.8
2017-10-30T04:49:36.124Z,8.8
2017-10-30T04:50:38.499Z,8.8
2017-10-30T04:51:40.865Z,8.8
2017-10-30T04:52:43.220Z,8.8
2017-10-30T04:53:45.594Z,8.8
2017-10-30T04:54:47.963Z,8.8
2017-10-30T04:55:50.331Z,8.8
2017-10-30T04:56:52.696Z,8.8
2017-10-30T04:57:55.061Z,8.8
2017-10-30T04:58:57.426Z,8.8
2017-10-30T04:59:59.805Z,8.7
2017-10-30T05:01:02.163Z,8.8
2017-10-30T05:02:04.540Z,8.8
2017-10-30T05:03:07.255Z,8.8
2017-10-30T05:04:09.626Z,8.8
2017-10-30T05:05:12.014Z,8.7
2017-10-30T05:06:14.386Z,8.8
2017-10-30T05:07:16.739Z,8.8
2017-10-30T05:08:19.115Z,8.8
2017-10-30T05:09:22.177Z,8.7
2017-10-30T05:10:24.540Z,8.7
2017-10-30T05:11:27.259Z,8.7
2017-10-30T05:12:29.625Z,8.7
2017-10-30T05:13:31.991Z,8.8
2017-10-30T05:14:34.371Z,8.8
2017-10-30T05:15:36.732Z,8.8
2017-10-30T05:16:39.109Z,8.8
2017-10-30T05:17:41.479Z,8.8
2017-10-30T05:18:43.837Z,8.8
2017-10-30T05:19:46.210Z,8.8
2017-10-30T05:20:48.628Z,8.8
2017-10-30T05:21:50.993Z,8.8
2017-10-30T05:22:53.365Z,8.8
2017-10-30T05:23:55.726Z,8.8
2017-10-30T05:24:58.091Z,8.8
2017-10-30T05:26:00.826Z,8.8
2017-10-30T05:27:03.189Z,8.8
2017-10-30T05:28:05.552Z,8.8
2017-10-30T05:29:08.264Z,8.8
2017-10-30T05:30:10.630Z,8.8
2017-10-30T05:31:12.986Z,8.8
2017-10-30T05:32:15.750Z,8.8
2017-10-30T05:33:18.130Z,8.8
2017-10-30T05:34:20.498Z,8.8
2017-10-30T05:35:22.852Z,8.9
2017-10-30T05:36:25.569Z,8.9
2017-10-30T05:37:27.930Z,8.9
2017-10-30T05:38:30.302Z,8.9
2017-10-30T05:39:32.667Z,8.9
2017-10-30T05:40:35.384Z,8.9
2017-10-30T05:41:38.103Z,8.9
2017-10-30T05:42:40.830Z,8.9
2017-10-30T05:43:43.191Z,8.9
2017-10-30T05:44:45.914Z,8.9
2017-10-30T05:45:48.285Z,8.9
2017-10-30T05:46:50.650Z,8.9
2017-10-30T05:47:53.019Z,8.9
2017-10-30T05:48:55.388Z,8.9
2017-10-30T05:49:57.755Z,8.9
2017-10-30T05:51:00.115Z,8.9
2017-10-30T05:52:02.833Z,8.9
2017-10-30T05:53:05.201Z,8.9
2017-10-30T05:54:07.568Z,8.9
2017-10-30T05:55:12.057Z,8.9
2017-10-30T05:56:14.623Z,8.9
2017-10-30T05:57:16.989Z,8.9
2017-10-30T05:58:19.374Z,8.9
2017-10-30T05:59:21.739Z,8.9
2017-10-30T06:00:24.116Z,8.9
2017-10-30T06:01:26.482Z,8.9
2017-10-30T06:02:28.852Z,8.9
2017-10-30T06:03:31.222Z,8.9
2017-10-30T06:04:33.946Z,8.9
2017-10-30T06:05:36.316Z,8.9
2017-10-30T06:06:38.713Z,8.9
2017-10-30T06:07:41.432Z,8.9
2017-10-30T06:08:43.812Z,8.9
2017-10-30T06:09:46.195Z,9
2017-10-30T06:10:48.558Z,8.9
2017-10-30T06:11:50.924Z,9
2017-10-30T06:12:53.651Z,9
2017-10-30T06:13:56.012Z,9
2017-10-30T06:14:58.383Z,8.9
2017-10-30T06:16:00.748Z,8.9
2017-10-30T06:17:04.198Z,9
2017-10-30T06:18:07.389Z,9
2017-10-30T06:19:10.107Z,9
2017-10-30T06:20:12.499Z,8.9
2017-10-30T06:21:14.864Z,9
2017-10-30T06:22:17.233Z,9
2017-10-30T06:23:19.958Z,8.9
2017-10-30T06:24:22.894Z,8.9
2017-10-30T06:25:25.253Z,9
2017-10-30T06:26:27.771Z,8.9
2017-10-30T06:27:30.503Z,8.9
2017-10-30T06:28:32.879Z,8.9
2017-10-30T06:29:35.245Z,8.9
2017-10-30T06:30:38.361Z,8.9
2017-10-30T06:31:40.725Z,8.9
2017-10-30T06:32:43.206Z,8.9
2017-10-30T06:33:45.575Z,8.9
2017-10-30T06:34:48.595Z,8.9
2017-10-30T06:35:50.960Z,8.9
2017-10-30T06:36:53.682Z,8.9
2017-10-30T06:37:56.035Z,8.9
2017-10-30T06:38:58.592Z,8.9
2017-10-30T06:40:00.980Z,8.9
2017-10-30T06:41:03.752Z,8.9
2017-10-30T06:42:06.159Z,8.9
2017-10-30T06:43:09.331Z,8.9
2017-10-30T06:44:11.707Z,8.9
2017-10-30T06:45:14.088Z,8.9
2017-10-30T06:46:16.846Z,8.9
2017-10-30T06:47:19.593Z,8.9
2017-10-30T06:48:22.597Z,8.9
2017-10-30T06:49:24.996Z,8.9
2017-10-30T06:50:27.596Z,8.9
2017-10-30T06:51:29.970Z,8.9
2017-10-30T06:52:33.549Z,8.9
2017-10-30T06:53:35.921Z,8.9
2017-10-30T06:54:38.283Z,8.9
2017-10-30T06:55:41.005Z,8.9
2017-10-30T06:56:43.400Z,8.9
2017-10-30T06:57:45.785Z,9
2017-10-30T06:58:48.165Z,9
2017-10-30T06:59:50.529Z,9
2017-10-30T07:00:52.895Z,9
2017-10-30T07:01:55.270Z,9.1
2017-10-30T07:02:57.636Z,9.1
2017-10-30T07:04:00.650Z,9.1
2017-10-30T07:05:03.772Z,9.1
2017-10-30T07:06:06.126Z,9.2
2017-10-30T07:07:08.684Z,9.2
2017-10-30T07:08:11.723Z,9.3
2017-10-30T07:09:14.093Z,9.4
2017-10-30T07:10:16.582Z,9.4
2017-10-30T07:11:18.942Z,9.6
2017-10-30T07:12:21.316Z,9.7
2017-10-30T07:13:23.695Z,9.8
2017-10-30T07:14:26.055Z,9.9
2017-10-30T07:15:28.571Z,10.1
2017-10-30T07:16:30.941Z,10.1
2017-10-30T07:17:33.306Z,10.2
2017-10-30T07:18:35.681Z,10.3
2017-10-30T07:19:38.050Z,10.3
2017-10-30T07:20:40.440Z,10.4
2017-10-30T07:21:42.980Z,10.5
2017-10-30T07:22:45.342Z,10.6
2017-10-30T07:23:48.060Z,10.8
2017-10-30T07:24:50.429Z,10.9
2017-10-30T07:25:52.797Z,11
2017-10-30T07:26:55.225Z,11.1
2017-10-30T07:27:57.755Z,11.2
2017-10-30T07:29:00.119Z,11.3
2017-10-30T07:30:02.852Z,11.4
2017-10-30T07:31:05.215Z,11.5
2017-10-30T07:32:08.164Z,11.6
2017-10-30T07:33:10.535Z,11.7
2017-10-30T07:34:12.898Z,11.9
2017-10-30T07:35:15.264Z,12
2017-10-30T07:36:17.639Z,12.1
2017-10-30T07:37:20.007Z,12.2
2017-10-30T07:38:22.383Z,12.3
2017-10-30T07:39:24.744Z,12.3
2017-10-30T07:40:27.119Z,12.3
2017-10-30T07:41:29.858Z,12.3
2017-10-30T07:42:32.228Z,12.3
2017-10-30T07:43:34.604Z,12.3
2017-10-30T07:44:36.976Z,12.3
2017-10-30T07:45:39.342Z,12.3
2017-10-30T07:46:41.724Z,12.3
2017-10-30T07:47:44.100Z,12.2
2017-10-30T07:48:46.464Z,12.2
2017-10-30T07:49:48.837Z,12.1
2017-10-30T07:50:51.217Z,12.1
2017-10-30T07:51:53.584Z,12
2017-10-30T07:52:55.959Z,11.9
2017-10-30T07:53:58.310Z,11.9
2017-10-30T07:55:00.676Z,11.9
2017-10-30T07:56:03.062Z,11.9
2017-10-30T07:57:05.439Z,12
2017-10-30T07:58:07.817Z,12.1
2017-10-30T07:59:10.179Z,12.2
2017-10-30T08:00:12.553Z,12.4
2017-10-30T08:01:14.926Z,12.5
2017-10-30T08:02:17.296Z,12.6
2017-10-30T08:03:19.673Z,12.8
2017-10-30T08:04:22.037Z,12.9
2017-10-30T08:05:24.402Z,13.1
2017-10-30T08:06:26.781Z,13.3
2017-10-30T08:07:29.153Z,13.4
2017-10-30T08:08:31.899Z,13.6
2017-10-30T08:09:34.276Z,13.8
2017-10-30T08:10:36.654Z,14
2017-10-30T08:11:39.034Z,14.1
2017-10-30T08:12:41.409Z,14.3
2017-10-30T08:13:43.790Z,14.5
2017-10-30T08:14:46.164Z,14.7
2017-10-30T08:15:48.536Z,14.9
2017-10-30T08:16:51.263Z,15.1
2017-10-30T08:17:53.649Z,15.2
2017-10-30T08:18:56.020Z,15.3
2017-10-30T08:19:58.397Z,15.5
2017-10-30T08:21:00.781Z,15.5
2017-10-30T08:22:03.154Z,15.7
2017-10-30T08:23:05.537Z,15.7
2017-10-30T08:24:07.914Z,15.8
2017-10-30T08:25:10.628Z,15.9
2017-10-30T08:26:13.013Z,16.1
2017-10-30T08:27:15.397Z,16.3
2017-10-30T08:28:17.780Z,16.4
2017-10-30T08:29:20.153Z,16.6
2017-10-30T08:30:22.521Z,16.7
2017-10-30T08:31:24.911Z,16.8
2017-10-30T08:32:27.284Z,16.9
2017-10-30T08:33:29.660Z,17.1
2017-10-30T08:34:32.391Z,17.2
2017-10-30T08:35:34.766Z,17.4
2017-10-30T08:36:37.156Z,17.5
2017-10-30T08:37:39.537Z,17.6
2017-10-30T08:38:41.915Z,17.7
2017-10-30T08:39:44.297Z,17.8
2017-10-30T08:40:46.683Z,17.9
2017-10-30T08:41:49.404Z,18
2017-10-30T08:42:51.791Z,18.1
2017-10-30T08:43:54.515Z,18.2
2017-10-30T08:44:56.896Z,18.3
2017-10-30T08:45:59.287Z,18.4
2017-10-30T08:47:01.667Z,18.4
2017-10-30T08:48:04.396Z,18.4
2017-10-30T08:49:07.150Z,18.5
2017-10-30T08:50:09.526Z,18.6
2017-10-30T08:51:11.924Z,18.6
2017-10-30T08:52:14.306Z,18.6
2017-10-30T08:53:16.684Z,18.6
2017-10-30T08:54:19.067Z,18.7
2017-10-30T08:55:21.453Z,18.7
2017-10-30T08:56:23.828Z,18.8
2017-10-30T08:57:26.216Z,18.8
2017-10-30T08:58:28.592Z,18.9
2017-10-30T08:59:30.985Z,18.9
2017-10-30T09:00:33.402Z,18.9
2017-10-30T09:01:35.779Z,19
2017-10-30T09:02:38.151Z,19.1
2017-10-30T09:03:40.913Z,19.2
2017-10-30T09:04:43.307Z,19.3
2017-10-30T09:05:45.687Z,19.4
2017-10-30T09:06:48.071Z,19.5
2017-10-30T09:07:50.453Z,19.6
2017-10-30T09:08:53.191Z,19.7
2017-10-30T09:09:55.584Z,19.8
2017-10-30T09:10:57.971Z,19.8
2017-10-30T09:12:00.337Z,19.9
2017-10-30T09:14:07.303Z,20
2017-10-30T09:15:09.694Z,20.1
2017-10-30T09:16:12.082Z,20.2
2017-10-30T09:17:14.462Z,20.2
2017-10-30T09:18:17.195Z,20.3
2017-10-30T09:19:19.574Z,20.3
2017-10-30T09:20:21.970Z,20.4
2017-10-30T09:21:24.348Z,20.4
2017-10-30T09:22:27.435Z,20.5
2017-10-30T09:23:30.166Z,20.6
2017-10-30T09:24:32.554Z,20.6
2017-10-30T09:25:34.937Z,20.7
2017-10-30T09:26:37.677Z,20.8
2017-10-30T09:27:40.053Z,20.9
2017-10-30T09:28:42.439Z,21
2017-10-30T09:29:44.829Z,21
2017-10-30T09:30:47.216Z,21.1
2017-10-30T09:31:49.597Z,21.1
2017-10-30T09:32:51.985Z,21.1
2017-10-30T09:33:54.371Z,21.2
2017-10-30T09:34:56.763Z,21.3
2017-10-30T09:35:59.153Z,21.4
2017-10-30T09:37:01.530Z,21.4
2017-10-30T09:38:03.914Z,21.5
2017-10-30T09:39:06.313Z,21.5
2017-10-30T09:40:08.699Z,21.6
2017-10-30T09:41:11.094Z,21.6
2017-10-30T09:42:13.540Z,21.7
2017-10-30T09:43:15.918Z,21.7
2017-10-30T09:44:18.315Z,21.7
2017-10-30T09:45:20.703Z,21.7
2017-10-30T09:46:23.080Z,21.7
2017-10-30T09:47:25.471Z,21.7
2017-10-30T09:48:28.206Z,21.7
2017-10-30T09:49:30.597Z,21.6
2017-10-30T09:50:32.991Z,21.6
2017-10-30T09:51:35.371Z,21.6
2017-10-30T09:52:37.759Z,21.6
2017-10-30T09:53:40.545Z,21.6
2017-10-30T09:54:42.928Z,21.6
2017-10-30T09:55:45.323Z,21.5
2017-10-30T09:56:47.711Z,21.6
2017-10-30T09:57:50.098Z,21.6
2017-10-30T09:58:52.483Z,21.6
2017-10-30T09:59:54.889Z,21.7
2017-10-30T10:00:57.286Z,21.7
2017-10-30T10:01:59.682Z,21.8
2017-10-30T10:03:02.282Z,21.9
2017-10-30T10:04:04.679Z,21.9
2017-10-30T10:05:07.074Z,22
2017-10-30T10:06:09.476Z,22.1
2017-10-30T10:07:11.860Z,22.1
2017-10-30T10:08:14.434Z,22.2
2017-10-30T10:09:16.981Z,22.1
2017-10-30T10:10:19.737Z,22.1
2017-10-30T10:11:22.161Z,22
2017-10-30T10:12:24.535Z,22
2017-10-30T10:13:27.510Z,22
2017-10-30T10:14:29.893Z,22.1
2017-10-30T10:15:32.296Z,22.1
2017-10-30T10:16:34.680Z,22.2
2017-10-30T10:17:37.079Z,22.2
2017-10-30T10:18:39.827Z,22.2
2017-10-30T10:19:42.970Z,22.3
2017-10-30T10:20:45.356Z,22.4
2017-10-30T10:21:47.748Z,22.4
2017-10-30T10:22:50.152Z,22.4
2017-10-30T10:23:52.540Z,22.4
2017-10-30T10:24:55.315Z,22.4
2017-10-30T10:25:57.699Z,22.4
2017-10-30T10:27:00.078Z,22.4
2017-10-30T10:28:02.689Z,22.3
2017-10-30T10:29:05.087Z,22.2
2017-10-30T10:30:07.472Z,22.1
2017-10-30T10:31:09.859Z,22
2017-10-30T10:32:12.487Z,21.9
2017-10-30T10:33:14.876Z,22
2017-10-30T10:34:17.254Z,22
2017-10-30T10:35:19.664Z,22
2017-10-30T10:36:22.034Z,22
2017-10-30T10:37:24.567Z,22.1
2017-10-30T10:38:26.949Z,22.2
2017-10-30T10:39:29.340Z,22.2
2017-10-30T10:40:31.727Z,22.3
2017-10-30T10:41:34.466Z,22.5
2017-10-30T10:42:36.851Z,22.6
2017-10-30T10:43:39.250Z,22.7
2017-10-30T10:44:41.638Z,22.8
2017-10-30T10:45:44.114Z,22.9
2017-10-30T10:46:46.502Z,23
2017-10-30T10:47:48.890Z,23.1
2017-10-30T10:48:51.267Z,23.2
2017-10-30T10:49:53.778Z,23.2
2017-10-30T10:50:56.162Z,23.2
2017-10-30T10:51:58.558Z,23.2
2017-10-30T10:53:01.022Z,23.3
2017-10-30T10:54:03.411Z,23.2
2017-10-30T10:55:05.792Z,23.2
2017-10-30T10:56:08.189Z,23.1
2017-10-30T10:57:10.572Z,23
2017-10-30T10:58:12.965Z,23
2017-10-30T10:59:15.349Z,22.9
2017-10-30T11:00:17.760Z,23
2017-10-30T11:01:20.134Z,23
2017-10-30T11:02:22.523Z,23.1
2017-10-30T11:03:25.068Z,23.2
2017-10-30T11:04:27.455Z,23.3
2017-10-30T11:05:30.143Z,23.4
2017-10-30T11:06:32.531Z,23.4
2017-10-30T11:07:34.908Z,23.5
2017-10-30T11:08:37.293Z,23.5
2017-10-30T11:09:39.686Z,23.6
2017-10-30T11:10:42.435Z,23.6
2017-10-30T11:11:44.825Z,23.6
2017-10-30T11:12:47.221Z,23.6
2017-10-30T11:13:49.617Z,23.6
2017-10-30T11:14:52.012Z,23.6
2017-10-30T11:15:54.402Z,23.6
2017-10-30T11:16:56.777Z,23.4
2017-10-30T11:17:59.165Z,23.3
2017-10-30T11:19:01.566Z,23.3
2017-10-30T11:20:04.299Z,23.3
2017-10-30T11:21:07.058Z,23.2
2017-10-30T11:22:09.448Z,23
2017-10-30T11:23:12.189Z,22.9
2017-10-30T11:24:14.588Z,22.9
2017-10-30T11:25:16.977Z,22.8
2017-10-30T11:26:19.718Z,22.7
2017-10-30T11:27:22.109Z,22.6
2017-10-30T11:28:24.501Z,22.5
2017-10-30T11:29:26.887Z,22.5
2017-10-30T11:30:29.634Z,22.4
2017-10-30T11:31:32.029Z,22.4
2017-10-30T11:32:34.414Z,22.4
2017-10-30T11:33:36.794Z,22.5
2017-10-30T11:34:39.187Z,22.6
2017-10-30T11:35:41.582Z,22.7
2017-10-30T11:36:43.974Z,22.7
2017-10-30T11:37:46.371Z,22.7
2017-10-30T11:38:48.746Z,22.6
2017-10-30T11:39:51.140Z,22.4
2017-10-30T11:40:53.528Z,22.3
2017-10-30T11:41:55.903Z,22.3
2017-10-30T11:42:58.300Z,22.4
2017-10-30T11:44:00.682Z,22.4
2017-10-30T11:45:03.425Z,22.3
2017-10-30T11:46:05.810Z,22.2
2017-10-30T11:47:08.197Z,22.1
2017-10-30T11:48:10.578Z,22.1
2017-10-30T11:49:12.973Z,21.9
2017-10-30T11:50:15.353Z,21.7
2017-10-30T11:51:17.746Z,21.5
2017-10-30T11:52:20.131Z,21.3
2017-10-30T11:53:22.522Z,21.1
2017-10-30T11:54:24.906Z,20.9
2017-10-30T11:55:27.293Z,20.7
2017-10-30T11:56:29.878Z,20.5
2017-10-30T11:57:32.254Z,20.4
2017-10-30T11:58:34.637Z,20.2
2017-10-30T11:59:37.029Z,20
2017-10-30T12:00:39.416Z,20
2017-10-30T12:01:41.792Z,19.9
2017-10-30T12:02:44.181Z,19.8
2017-10-30T12:03:47.258Z,19.6
2017-10-30T12:04:49.657Z,19.5
2017-10-30T12:05:52.043Z,19.5
2017-10-30T12:06:54.417Z,19.6
2017-10-30T12:07:56.806Z,19.6
2017-10-30T12:08:59.183Z,19.6
2017-10-30T12:10:01.569Z,19.6
2017-10-30T12:11:03.944Z,19.4
2017-10-30T12:12:06.331Z,19.4
2017-10-30T12:13:09.068Z,19.3
2017-10-30T12:14:11.460Z,19.3
2017-10-30T12:15:13.839Z,19.1
2017-10-30T12:16:16.218Z,19
2017-10-30T12:17:18.597Z,18.8
2017-10-30T12:18:20.986Z,18.6
2017-10-30T12:19:23.734Z,18.6
2017-10-30T12:20:26.116Z,18.6
2017-10-30T12:21:28.496Z,18.6
2017-10-30T12:22:30.890Z,18.7
2017-10-30T12:23:33.284Z,18.7
2017-10-30T12:24:35.664Z,18.8
2017-10-30T12:25:38.035Z,18.8
2017-10-30T12:26:40.418Z,18.8
2017-10-30T12:27:42.801Z,18.9
2017-10-30T12:28:45.173Z,18.9
2017-10-30T12:29:47.553Z,19
2017-10-30T12:30:49.945Z,19
2017-10-30T12:31:52.681Z,19
2017-10-30T12:32:55.071Z,19.1
2017-10-30T12:33:57.449Z,19.1
2017-10-30T12:34:59.836Z,19.2
2017-10-30T12:36:02.225Z,19.2
2017-10-30T12:37:04.610Z,19.1
2017-10-30T12:38:06.976Z,19.1
2017-10-30T12:39:09.366Z,19
2017-10-30T12:40:11.750Z,18.8
2017-10-30T12:41:14.123Z,18.8
2017-10-30T12:42:16.866Z,18.8
2017-10-30T12:43:19.255Z,18.8
2017-10-30T12:44:21.649Z,18.8
2017-10-30T12:45:24.017Z,18.9
2017-10-30T12:46:26.399Z,19
2017-10-30T12:47:28.781Z,19.1
2017-10-30T12:48:31.165Z,19.2
2017-10-30T12:49:33.540Z,19.4
2017-10-30T12:50:35.922Z,19.5
2017-10-30T12:51:38.307Z,19.6
2017-10-30T12:52:40.682Z,19.7
2017-10-30T12:53:43.071Z,19.8
2017-10-30T12:54:45.452Z,19.9
2017-10-30T12:55:48.182Z,19.9
2017-10-30T12:56:50.567Z,19.9
2017-10-30T12:57:52.952Z,20
2017-10-30T12:58:55.333Z,20
2017-10-30T12:59:57.722Z,20.1
2017-10-30T13:01:00.462Z,20.1
2017-10-30T13:02:02.836Z,20
2017-10-30T13:03:05.236Z,20
2017-10-30T13:04:07.999Z,19.9
2017-10-30T13:05:10.392Z,19.9
2017-10-30T13:06:13.124Z,19.9
2017-10-30T13:07:15.514Z,19.8
2017-10-30T13:08:17.896Z,19.7
2017-10-30T13:09:20.276Z,19.6
2017-10-30T13:10:22.654Z,19.5
2017-10-30T13:11:25.056Z,19.3
2017-10-30T13:12:27.419Z,19.3
2017-10-30T13:13:29.807Z,19.3
2017-10-30T13:14:32.189Z,19.2
2017-10-30T13:15:35.040Z,19.2
2017-10-30T13:16:37.740Z,19.2
2017-10-30T13:17:40.964Z,19.2
2017-10-30T13:18:43.357Z,19.2
2017-10-30T13:19:45.779Z,19.2
2017-10-30T13:20:48.234Z,19.2
2017-10-30T13:21:50.716Z,19.2
2017-10-30T13:22:53.087Z,19.2
2017-10-30T13:23:55.603Z,19.1
2017-10-30T13:24:57.992Z,19.1
2017-10-30T13:26:00.740Z,19.1
2017-10-30T13:27:03.120Z,19
2017-10-30T13:28:05.518Z,18.9
2017-10-30T13:29:07.900Z,18.8
2017-10-30T13:30:10.270Z,18.8
2017-10-30T13:31:12.654Z,18.7
2017-10-30T13:32:15.036Z,18.7
2017-10-30T13:33:17.420Z,18.7
2017-10-30T13:34:19.810Z,18.6
2017-10-30T13:35:22.569Z,18.5
2017-10-30T13:36:25.201Z,18.4
2017-10-30T13:37:27.587Z,18.3
2017-10-30T13:38:29.984Z,18.2
2017-10-30T13:39:32.564Z,18.1
2017-10-30T13:40:34.944Z,18
2017-10-30T13:41:37.321Z,17.9
2017-10-30T13:42:39.708Z,17.8
2017-10-30T13:43:42.098Z,17.7
2017-10-30T13:44:44.474Z,17.5
2017-10-30T13:46:32.086Z,17.4
2017-10-30T13:47:34.523Z,17.3
2017-10-30T13:48:36.947Z,17
2017-10-30T13:49:39.379Z,16.9
2017-10-30T13:50:41.806Z,16.8
2017-10-30T13:51:44.257Z,16.8
2017-10-30T13:52:46.688Z,16.7
2017-10-30T13:53:49.335Z,16.6
2017-10-30T13:54:52.847Z,16.5
2017-10-30T13:55:57.428Z,16.4
2017-10-30T13:56:59.879Z,16.3
2017-10-30T13:58:02.674Z,16.2
2017-10-30T13:59:05.156Z,16.1
2017-10-30T14:00:08.335Z,16
2017-10-30T14:01:11.335Z,15.9
2017-10-30T14:02:13.989Z,15.7
2017-10-30T14:03:18.019Z,15.6
2017-10-30T14:04:20.435Z,15.5
2017-10-30T14:05:22.884Z,15.5
2017-10-30T14:06:25.313Z,15.4
2017-10-30T14:07:27.893Z,15.2
2017-10-30T14:08:30.320Z,15.2
2017-10-30T14:09:32.881Z,15.1
2017-10-30T14:10:35.298Z,15
2017-10-30T14:11:37.735Z,14.9